Time;durP1;ratioP1;P1;durP2;ratioP2;P2;SDS_P1;SDS_P2;PMS_P1;PMS_P2;Temp;Humidity;BMP_temperature;BMP_pressure;BME280_temperature;BME280_humidity;BME280_pressure;Samples;Min_cycle;Max_cycle;Signal;HPM_P1;HPM_P2
2024/01/07 00:01:36;;;;;;;15.05;11.70;;;0.20;99.90;;;;;;5036643;28;20284;-77
2024/01/07 00:04:02;;;;;;;17.73;12.35;;;0.20;99.90;;;;;;4994956;28;20038;-76
2024/01/07 00:06:27;;;;;;;16.23;12.13;;;0.30;99.90;;;;;;5000737;28;20046;-77
2024/01/07 00:08:53;;;;;;;17.15;11.90;;;0.20;99.90;;;;;;4996377;28;20041;-77
2024/01/07 00:11:19;;;;;;;15.63;12.15;;;0.10;99.90;;;;;;5008895;28;20041;-77
2024/01/07 00:13:45;;;;;;;17.85;11.38;;;0.10;99.90;;;;;;4999984;28;20423;-77
2024/01/07 00:16:11;;;;;;;16.13;11.65;;;0.20;99.90;;;;;;4996730;28;20077;-76
2024/01/07 00:18:37;;;;;;;15.38;11.98;;;0.10;99.90;;;;;;4994274;28;20038;-77
2024/01/07 00:21:03;;;;;;;18.08;12.18;;;0.20;99.90;;;;;;4999524;28;20588;-76
2024/01/07 00:23:29;;;;;;;17.42;11.70;;;0.20;99.90;;;;;;5028378;28;20042;-77
2024/01/07 00:25:54;;;;;;;16.35;11.80;;;0.20;99.90;;;;;;4999605;28;20049;-77
2024/01/07 00:28:20;;;;;;;16.92;11.75;;;0.20;99.90;;;;;;4987289;28;20169;-77
2024/01/07 00:30:46;;;;;;;17.95;13.02;;;0.20;99.90;;;;;;5011044;28;20365;-77
2024/01/07 00:33:12;;;;;;;17.33;12.07;;;0.20;99.90;;;;;;4979124;28;20160;-77
2024/01/07 00:35:37;;;;;;;18.60;11.85;;;0.10;99.90;;;;;;4985077;28;20165;-77
2024/01/07 00:38:03;;;;;;;16.63;12.32;;;0.10;99.90;;;;;;4999556;28;20042;-77
2024/01/07 00:40:29;;;;;;;15.02;11.95;;;0.30;99.90;;;;;;4989661;28;20030;-77
2024/01/07 00:42:55;;;;;;;17.33;11.32;;;0.10;99.90;;;;;;4986030;28;20046;-77
2024/01/07 00:45:21;;;;;;;17.00;10.93;;;0.20;99.90;;;;;;4974639;28;20144;-77
2024/01/07 00:47:47;;;;;;;15.48;11.25;;;0.20;99.90;;;;;;4982174;28;20045;-77
2024/01/07 00:50:13;;;;;;;14.18;11.00;;;0.20;99.90;;;;;;4993492;28;20045;-77
2024/01/07 00:52:41;;;;;;;18.42;11.23;;;0.10;99.90;;;;;;5025688;28;20528;-77
2024/01/07 00:55:07;;;;;;;15.40;11.10;;;0.20;99.90;;;;;;4997350;28;20042;-77
2024/01/07 00:57:33;;;;;;;13.30;10.32;;;0.10;99.90;;;;;;4995936;28;20416;-77
2024/01/07 00:59:59;;;;;;;14.57;10.82;;;0.00;99.90;;;;;;4994860;28;20042;-77
2024/01/07 01:02:25;;;;;;;14.40;10.85;;;0.10;99.90;;;;;;5001637;28;20038;-77
2024/01/07 01:04:54;;;;;;;15.88;10.88;;;0.00;99.90;;;;;;4990166;28;20488;-76
2024/01/07 01:07:20;;;;;;;15.95;10.32;;;0.10;99.90;;;;;;4998460;28;20177;-77
2024/01/07 01:09:45;;;;;;;14.80;10.35;;;0.10;99.90;;;;;;4998557;28;20065;-77
2024/01/07 01:12:11;;;;;;;14.43;10.55;;;0.00;99.90;;;;;;4986582;28;20052;-77
2024/01/07 01:14:37;;;;;;;16.30;10.85;;;0.00;99.90;;;;;;4985938;28;20048;-77
2024/01/07 01:17:03;;;;;;;15.82;10.75;;;0.00;99.90;;;;;;4989890;28;20042;-77
2024/01/07 01:19:28;;;;;;;13.18;10.43;;;0.00;99.90;;;;;;4987411;28;20052;-77
2024/01/07 01:21:54;;;;;;;15.15;10.85;;;-0.10;99.90;;;;;;4997972;28;20390;-77
2024/01/07 01:24:20;;;;;;;15.95;10.38;;;0.10;99.90;;;;;;4990847;28;20046;-77
2024/01/07 01:26:46;;;;;;;13.77;9.85;;;0.10;99.90;;;;;;5029055;28;20084;-77
2024/01/07 01:29:11;;;;;;;15.25;10.45;;;0.00;99.90;;;;;;5002362;28;20080;-77
2024/01/07 01:31:37;;;;;;;14.80;10.73;;;0.00;99.90;;;;;;4988040;28;20046;-77
2024/01/07 01:34:03;;;;;;;14.20;9.65;;;0.00;99.90;;;;;;5022651;28;20133;-77
2024/01/07 01:36:31;;;;;;;12.15;9.40;;;0.10;99.90;;;;;;5020784;28;20505;-77
2024/01/07 01:38:57;;;;;;;12.30;9.98;;;0.00;99.90;;;;;;5015678;28;20077;-76
2024/01/07 01:41:26;;;;;;;15.15;9.77;;;0.00;99.90;;;;;;5000947;28;20124;-77
2024/01/07 01:43:56;;;;;;;11.77;9.25;;;0.00;99.90;;;;;;5027263;28;20046;-77
2024/01/07 01:46:22;;;;;;;12.98;9.35;;;0.00;99.90;;;;;;4980272;28;20042;-77
2024/01/07 01:48:47;;;;;;;11.55;8.70;;;0.00;99.90;;;;;;4999780;28;20042;-77
2024/01/07 01:51:13;;;;;;;13.27;9.23;;;0.00;99.90;;;;;;5002618;28;20400;-77
2024/01/07 01:53:42;;;;;;;12.63;9.35;;;0.00;99.90;;;;;;4984151;28;20484;-77
2024/01/07 01:56:08;;;;;;;14.90;9.63;;;0.00;99.90;;;;;;4995678;28;20053;-77
2024/01/07 01:58:34;;;;;;;13.25;9.20;;;0.00;99.90;;;;;;5008695;28;20050;-77
2024/01/07 02:01:00;;;;;;;13.35;9.23;;;0.00;99.90;;;;;;4999221;28;20053;-77
2024/01/07 02:03:26;;;;;;;12.50;9.20;;;-0.10;99.90;;;;;;5001097;28;20389;-77
2024/01/07 02:05:52;;;;;;;11.80;9.15;;;-0.10;99.90;;;;;;4985917;28;20042;-77
2024/01/07 02:08:19;;;;;;;12.13;8.75;;;-0.10;99.90;;;;;;4999436;28;20092;-77
2024/01/07 02:10:45;;;;;;;13.15;7.97;;;-0.10;99.90;;;;;;4996093;28;20083;-77
2024/01/07 02:13:11;;;;;;;12.52;9.02;;;-0.20;99.90;;;;;;5013999;28;20045;-77
2024/01/07 02:15:37;;;;;;;10.75;7.93;;;-0.10;99.90;;;;;;4985850;28;20041;-77
2024/01/07 02:18:03;;;;;;;13.70;8.93;;;-0.10;99.90;;;;;;4983510;28;20038;-77
2024/01/07 02:20:29;;;;;;;12.57;8.35;;;-0.10;99.90;;;;;;4985772;28;20132;-77
2024/01/07 02:22:57;;;;;;;12.80;8.07;;;-0.10;99.90;;;;;;4995645;28;20215;-77
2024/01/07 02:25:23;;;;;;;10.27;7.13;;;-0.10;99.90;;;;;;4979577;28;20166;-77
2024/01/07 02:27:49;;;;;;;11.50;7.85;;;-0.10;99.90;;;;;;5028899;28;20462;-77
2024/01/07 02:30:15;;;;;;;11.73;7.45;;;-0.10;99.90;;;;;;5027654;28;20077;-77
2024/01/07 02:32:40;;;;;;;11.95;7.82;;;-0.20;99.90;;;;;;4981833;28;20048;-77
2024/01/07 02:35:07;;;;;;;11.13;7.65;;;-0.10;99.90;;;;;;4989559;28;20456;-77
2024/01/07 02:37:33;;;;;;;11.52;7.40;;;-0.10;99.90;;;;;;5016762;28;20057;-77
2024/01/07 02:39:58;;;;;;;10.88;7.10;;;-0.20;99.90;;;;;;5027349;28;20064;-77
2024/01/07 02:42:24;;;;;;;12.13;7.70;;;-0.10;99.90;;;;;;4984585;28;20257;-77
2024/01/07 02:44:50;;;;;;;10.23;7.38;;;-0.20;99.90;;;;;;4995705;28;20358;-76
2024/01/07 02:47:16;;;;;;;10.85;7.47;;;-0.20;99.90;;;;;;5016129;28;20042;-77
2024/01/07 02:49:41;;;;;;;10.60;7.10;;;-0.10;99.90;;;;;;4985744;28;20056;-77
2024/01/07 02:52:07;;;;;;;9.38;6.82;;;-0.10;99.90;;;;;;4997240;28;20045;-77
2024/01/07 02:54:33;;;;;;;9.55;7.05;;;-0.10;99.90;;;;;;4983904;28;20037;-77
2024/01/07 02:56:58;;;;;;;9.85;6.38;;;-0.10;99.90;;;;;;4993023;28;20557;-77
2024/01/07 02:59:24;;;;;;;11.25;7.20;;;-0.10;99.90;;;;;;4988130;28;20050;-77
2024/01/07 03:01:50;;;;;;;10.43;6.75;;;-0.20;99.90;;;;;;4994790;28;20049;-77
2024/01/07 03:04:16;;;;;;;10.30;7.07;;;-0.10;99.90;;;;;;4983496;28;20121;-77
2024/01/07 03:06:42;;;;;;;11.52;7.72;;;-0.10;99.90;;;;;;5014319;28;20060;-77
2024/01/07 03:09:10;;;;;;;8.82;7.20;;;-0.10;99.90;;;;;;4997621;28;20033;-77
2024/01/07 03:11:44;;;;;;;8.60;6.50;;;-0.10;99.90;;;;;;5000470;28;20050;-77
2024/01/07 03:14:10;;;;;;;11.80;7.28;;;-0.10;99.90;;;;;;4999095;28;20044;-77
2024/01/07 03:16:36;;;;;;;8.88;6.55;;;-0.10;99.90;;;;;;4986565;28;20045;-77
2024/01/07 03:19:02;;;;;;;9.20;6.45;;;-0.10;99.90;;;;;;5001900;28;20045;-77
2024/01/07 03:21:31;;;;;;;8.10;6.57;;;-0.10;99.90;;;;;;4980860;28;20131;-77
2024/01/07 03:23:57;;;;;;;8.20;5.85;;;-0.10;99.90;;;;;;4995304;28;20478;-77
2024/01/07 03:26:23;;;;;;;8.25;6.13;;;-0.20;99.90;;;;;;4995700;28;20046;-77
2024/01/07 03:28:48;;;;;;;7.95;5.47;;;-0.10;99.90;;;;;;5002154;28;20045;-77
2024/01/07 03:31:18;;;;;;;8.25;6.00;;;-0.10;99.90;;;;;;4994430;28;20049;-77
2024/01/07 03:33:44;;;;;;;7.28;5.50;;;-0.10;99.90;;;;;;4996429;28;20179;-77
2024/01/07 03:36:12;;;;;;;7.70;5.45;;;-0.20;99.90;;;;;;4994109;28;20148;-76
2024/01/07 03:38:38;;;;;;;8.63;4.95;;;-0.10;99.90;;;;;;4979104;28;20149;-77
2024/01/07 03:41:05;;;;;;;7.95;5.30;;;-0.20;99.90;;;;;;5012220;28;20046;-77
2024/01/07 03:43:34;;;;;;;9.50;5.68;;;-0.20;99.90;;;;;;5029662;28;20121;-77
2024/01/07 03:46:00;;;;;;;8.43;5.20;;;-0.20;99.90;;;;;;5030500;28;20041;-77
2024/01/07 03:48:26;;;;;;;8.95;5.63;;;-0.20;99.90;;;;;;4994317;28;20125;-77
2024/01/07 03:50:52;;;;;;;5.55;4.90;;;-0.20;99.90;;;;;;4984052;28;20042;-77
2024/01/07 03:53:18;;;;;;;7.15;5.43;;;-0.20;99.90;;;;;;4998161;28;20133;-77
2024/01/07 03:55:43;;;;;;;7.78;5.18;;;-0.10;99.90;;;;;;4976215;28;20136;-77
2024/01/07 03:58:09;;;;;;;7.43;4.82;;;-0.20;99.90;;;;;;5025418;28;20037;-77
2024/01/07 04:00:38;;;;;;;8.20;5.47;;;-0.20;99.90;;;;;;5006717;28;20030;-77
2024/01/07 04:03:04;;;;;;;7.53;5.30;;;-0.10;99.90;;;;;;4994564;28;20180;-77
2024/01/07 04:05:29;;;;;;;7.65;5.15;;;-0.10;99.90;;;;;;4983166;28;20492;-77
2024/01/07 04:07:55;;;;;;;7.28;5.25;;;-0.10;99.90;;;;;;4981411;28;20041;-77
2024/01/07 04:10:21;;;;;;;8.20;5.25;;;-0.10;99.90;;;;;;4987173;28;20076;-77
2024/01/07 04:12:47;;;;;;;6.28;4.70;;;-0.10;99.90;;;;;;4983461;28;20133;-77
2024/01/07 04:15:13;;;;;;;6.75;4.43;;;-0.10;99.90;;;;;;4986168;28;20077;-77
2024/01/07 04:17:38;;;;;;;7.53;4.90;;;-0.20;99.90;;;;;;4997239;28;20128;-77
2024/01/07 04:20:06;;;;;;;6.18;4.53;;;-0.20;99.90;;;;;;4996947;28;20056;-77
2024/01/07 04:22:32;;;;;;;6.97;4.88;;;-0.20;99.90;;;;;;4999075;28;20581;-77
2024/01/07 04:24:57;;;;;;;6.95;5.15;;;-0.10;99.90;;;;;;4981655;28;20132;-77
2024/01/07 04:27:24;;;;;;;7.63;4.82;;;-0.20;99.90;;;;;;4993918;28;20132;-77
2024/01/07 04:29:51;;;;;;;7.30;5.03;;;-0.20;99.90;;;;;;4980991;28;20540;-77
2024/01/07 04:32:16;;;;;;;6.10;4.60;;;-0.10;99.90;;;;;;4989467;28;20391;-77
2024/01/07 04:34:42;;;;;;;6.13;4.32;;;-0.10;99.90;;;;;;4983435;28;20492;-77
2024/01/07 04:37:10;;;;;;;6.25;4.43;;;-0.10;99.90;;;;;;4981974;28;20515;-77
2024/01/07 04:39:36;;;;;;;5.63;3.78;;;-0.20;99.90;;;;;;4982627;28;20041;-77
2024/01/07 04:42:02;;;;;;;5.25;3.83;;;-0.20;99.90;;;;;;4981840;28;20037;-77
2024/01/07 04:44:28;;;;;;;5.97;3.65;;;-0.20;99.90;;;;;;4994632;28;20507;-77
2024/01/07 04:46:54;;;;;;;5.65;3.95;;;-0.20;99.90;;;;;;4986833;28;20045;-77
2024/01/07 04:49:19;;;;;;;6.60;3.80;;;-0.10;99.90;;;;;;5000004;28;20144;-77
2024/01/07 04:51:45;;;;;;;5.57;3.42;;;-0.10;99.90;;;;;;4989387;28;20784;-77
2024/01/07 04:54:11;;;;;;;4.95;3.42;;;-0.20;99.90;;;;;;4984908;28;20064;-77
2024/01/07 04:56:37;;;;;;;5.78;3.78;;;-0.10;99.90;;;;;;4995347;28;20120;-77
2024/01/07 04:59:02;;;;;;;5.53;3.78;;;-0.20;99.90;;;;;;4995884;28;20137;-77
2024/01/07 05:01:28;;;;;;;5.07;3.55;;;-0.20;99.90;;;;;;5007595;28;20490;-77
2024/01/07 05:03:54;;;;;;;4.63;3.42;;;-0.10;99.90;;;;;;4991390;28;20072;-77
2024/01/07 05:06:19;;;;;;;4.80;3.47;;;-0.10;99.90;;;;;;4999168;28;20030;-77
2024/01/07 05:08:45;;;;;;;4.45;2.90;;;-0.20;99.90;;;;;;4998717;28;20164;-77
2024/01/07 05:11:11;;;;;;;4.93;3.15;;;-0.20;99.90;;;;;;5000714;28;20132;-78
2024/01/07 05:13:37;;;;;;;4.63;3.20;;;-0.20;99.90;;;;;;4999714;28;20500;-77
2024/01/07 05:16:03;;;;;;;4.43;3.10;;;-0.10;99.90;;;;;;5001156;28;20060;-77
2024/01/07 05:18:29;;;;;;;6.35;2.90;;;-0.10;99.90;;;;;;4985099;28;20041;-78
2024/01/07 05:20:54;;;;;;;4.47;2.97;;;-0.10;99.90;;;;;;5027866;28;20049;-77
2024/01/07 05:23:20;;;;;;;4.47;2.70;;;-0.10;99.90;;;;;;4998918;28;20176;-77
2024/01/07 05:25:46;;;;;;;7.60;3.28;;;-0.10;99.90;;;;;;4987515;28;20076;-77
2024/01/07 05:28:13;;;;;;;5.28;2.88;;;-0.10;99.90;;;;;;4995055;28;20030;-77
2024/01/07 05:30:41;;;;;;;4.07;2.63;;;-0.10;99.90;;;;;;4999846;28;20045;-77
2024/01/07 05:33:06;;;;;;;5.80;2.83;;;-0.10;99.90;;;;;;4987656;28;20038;-78
2024/01/07 05:35:32;;;;;;;5.15;2.80;;;-0.10;99.90;;;;;;4982370;28;20041;-78
2024/01/07 05:37:58;;;;;;;3.58;2.78;;;-0.10;99.90;;;;;;5013602;28;20045;-78
2024/01/07 05:40:24;;;;;;;4.43;2.92;;;-0.10;99.90;;;;;;4989381;28;20401;-77
2024/01/07 05:42:49;;;;;;;4.53;2.70;;;-0.10;99.90;;;;;;5000908;28;20516;-77
2024/01/07 05:45:15;;;;;;;4.30;2.42;;;-0.10;99.90;;;;;;4995946;28;20050;-78
2024/01/07 05:47:41;;;;;;;3.33;2.42;;;-0.10;99.90;;;;;;5023622;28;20041;-78
2024/01/07 05:50:08;;;;;;;5.35;2.70;;;-0.10;99.90;;;;;;4998447;28;20057;-78
2024/01/07 05:52:34;;;;;;;3.70;2.63;;;-0.10;99.90;;;;;;4983104;28;20087;-77
2024/01/07 05:55:03;;;;;;;3.30;2.53;;;-0.10;99.90;;;;;;5019377;28;20041;-78
2024/01/07 05:57:29;;;;;;;3.47;2.38;;;-0.10;99.90;;;;;;4994530;28;20046;-77
2024/01/07 05:59:55;;;;;;;5.57;2.70;;;-0.10;99.90;;;;;;4998390;28;20054;-78
2024/01/07 06:02:22;;;;;;;4.97;2.42;;;-0.10;99.90;;;;;;5000449;28;20074;-78
2024/01/07 06:04:48;;;;;;;4.30;2.65;;;-0.20;99.90;;;;;;4998400;28;20473;-78
2024/01/07 06:07:14;;;;;;;4.25;2.63;;;-0.10;99.90;;;;;;5001671;28;20042;-78
2024/01/07 06:09:40;;;;;;;3.60;2.50;;;-0.10;99.90;;;;;;4999885;28;20459;-78
2024/01/07 06:12:05;;;;;;;4.30;2.47;;;-0.10;99.90;;;;;;4998383;28;20042;-77
2024/01/07 06:14:31;;;;;;;4.18;2.40;;;-0.10;99.90;;;;;;4994105;28;20128;-78
2024/01/07 06:16:57;;;;;;;6.00;2.30;;;-0.10;99.90;;;;;;4982827;28;20053;-78
2024/01/07 06:19:23;;;;;;;3.45;2.20;;;-0.10;99.90;;;;;;4988372;28;20052;-78
2024/01/07 06:21:48;;;;;;;4.38;2.42;;;-0.10;99.90;;;;;;5001257;28;20423;-78
2024/01/07 06:24:14;;;;;;;2.90;2.35;;;-0.10;99.90;;;;;;5029435;28;20041;-78
2024/01/07 06:26:40;;;;;;;5.47;2.72;;;-0.10;99.90;;;;;;4980987;28;20050;-78
2024/01/07 06:29:07;;;;;;;2.70;2.17;;;-0.10;99.90;;;;;;5020997;28;20241;-78
2024/01/07 06:31:33;;;;;;;3.42;2.40;;;-0.10;99.90;;;;;;4982169;28;20057;-77
2024/01/07 06:33:59;;;;;;;4.80;2.58;;;-0.10;99.90;;;;;;5012519;28;20041;-78
2024/01/07 06:36:25;;;;;;;5.35;2.20;;;-0.10;99.90;;;;;;5001108;28;20058;-78
2024/01/07 06:38:51;;;;;;;3.55;2.45;;;-0.10;99.90;;;;;;4993910;28;20068;-78
2024/01/07 06:41:17;;;;;;;2.70;2.20;;;-0.10;99.90;;;;;;5000552;28;20093;-78
2024/01/07 06:43:42;;;;;;;4.70;2.42;;;-0.10;99.90;;;;;;5026190;28;20152;-78
2024/01/07 06:46:08;;;;;;;2.85;2.30;;;-0.10;99.90;;;;;;4989547;28;20045;-78
2024/01/07 06:48:34;;;;;;;5.25;2.53;;;-0.10;99.90;;;;;;4998999;28;20422;-78
2024/01/07 06:51:00;;;;;;;4.30;2.42;;;-0.10;99.90;;;;;;4997215;28;20112;-78
2024/01/07 06:53:26;;;;;;;4.10;2.13;;;-0.10;99.90;;;;;;4995701;28;20500;-78
2024/01/07 06:55:51;;;;;;;5.50;2.10;;;-0.20;99.90;;;;;;4988074;28;20037;-78
2024/01/07 06:58:17;;;;;;;3.13;2.15;;;-0.20;99.90;;;;;;5029232;28;20455;-78
2024/01/07 07:00:45;;;;;;;2.58;2.10;;;-0.20;99.90;;;;;;4992423;28;20084;-78
2024/01/07 07:03:11;;;;;;;3.38;2.30;;;-0.20;99.90;;;;;;4997954;28;20071;-78
2024/01/07 07:05:37;;;;;;;2.40;2.10;;;-0.20;99.90;;;;;;5000421;28;20042;-78
2024/01/07 07:08:03;;;;;;;3.75;2.25;;;-0.20;99.90;;;;;;5016113;28;20041;-78
2024/01/07 07:10:31;;;;;;;3.40;2.20;;;-0.20;99.90;;;;;;5001236;28;20125;-78
2024/01/07 07:12:57;;;;;;;5.90;2.38;;;-0.20;99.90;;;;;;4980318;28;20052;-78
2024/01/07 07:15:26;;;;;;;3.53;2.10;;;-0.20;99.90;;;;;;4985334;28;20034;-78
2024/01/07 07:17:52;;;;;;;3.90;2.30;;;-0.20;99.90;;;;;;5007532;28;20049;-77
2024/01/07 07:20:18;;;;;;;4.93;1.95;;;-0.30;99.90;;;;;;4983727;28;20076;-78
2024/01/07 07:22:44;;;;;;;4.25;2.30;;;-0.30;99.90;;;;;;4994530;28;20076;-78
2024/01/07 07:25:09;;;;;;;4.25;2.13;;;-0.30;99.90;;;;;;4995818;28;20502;-79
2024/01/07 07:27:35;;;;;;;3.42;2.17;;;-0.30;99.90;;;;;;4997255;28;20360;-78
2024/01/07 07:30:01;;;;;;;4.75;2.05;;;-0.30;99.90;;;;;;4986039;28;20046;-78
2024/01/07 07:32:27;;;;;;;5.20;2.10;;;-0.30;99.90;;;;;;4981837;28;20037;-78
2024/01/07 07:34:52;;;;;;;2.20;1.73;;;-0.40;99.90;;;;;;5027299;28;20409;-78
2024/01/07 07:37:18;;;;;;;4.80;2.25;;;-0.40;99.90;;;;;;4981004;28;20159;-78
2024/01/07 07:39:44;;;;;;;3.20;1.90;;;-0.50;99.90;;;;;;4995764;28;20046;-78
2024/01/07 07:42:10;;;;;;;2.47;1.88;;;-0.50;99.90;;;;;;4995047;28;20046;-79
2024/01/07 07:44:39;;;;;;;3.22;2.08;;;-0.60;99.90;;;;;;5026970;28;20037;-79
2024/01/07 07:47:05;;;;;;;3.78;2.20;;;-0.60;99.90;;;;;;4996452;28;20461;-79
2024/01/07 07:49:31;;;;;;;2.70;2.08;;;-0.70;99.90;;;;;;4982863;28;20042;-79
2024/01/07 07:51:57;;;;;;;5.05;2.03;;;-0.70;99.90;;;;;;4995403;28;20046;-78
2024/01/07 07:54:22;;;;;;;3.63;2.08;;;-0.80;99.90;;;;;;4996941;28;20072;-79
2024/01/07 07:56:48;;;;;;;3.28;2.05;;;-0.80;99.90;;;;;;4982043;28;20121;-78
2024/01/07 07:59:14;;;;;;;2.92;1.90;;;-0.80;99.90;;;;;;4998759;28;20477;-78
2024/01/07 08:01:42;;;;;;;3.20;2.13;;;-0.90;99.90;;;;;;4995856;28;20069;-78
2024/01/07 08:04:09;;;;;;;4.95;2.25;;;-0.90;99.90;;;;;;4996045;28;20141;-79
2024/01/07 08:06:35;;;;;;;4.53;2.33;;;-0.90;99.90;;;;;;4998656;28;20038;-78
2024/01/07 08:09:01;;;;;;;3.70;2.30;;;-0.90;99.90;;;;;;4981948;28;20143;-79
2024/01/07 08:11:29;;;;;;;3.03;2.20;;;-0.90;99.90;;;;;;4993201;28;20065;-79
2024/01/07 08:13:55;;;;;;;3.25;2.30;;;-0.90;99.90;;;;;;4988411;28;20157;-79
2024/01/07 08:16:21;;;;;;;4.97;2.33;;;-0.80;99.90;;;;;;4997898;28;20113;-79
2024/01/07 08:18:46;;;;;;;3.83;2.20;;;-0.80;99.90;;;;;;4992528;28;20050;-78
2024/01/07 08:21:12;;;;;;;3.33;2.72;;;-0.70;99.90;;;;;;4999338;28;21124;-79
2024/01/07 08:23:38;;;;;;;4.40;2.30;;;-0.80;99.90;;;;;;4984565;28;20033;-78
2024/01/07 08:26:04;;;;;;;5.03;2.30;;;-0.80;99.90;;;;;;4998930;28;20042;-79
2024/01/07 08:28:29;;;;;;;5.97;2.63;;;-0.80;99.90;;;;;;4985238;28;20030;-78
2024/01/07 08:30:58;;;;;;;4.07;2.20;;;-0.70;99.90;;;;;;4995903;28;20073;-78
2024/01/07 08:33:28;;;;;;;3.40;2.22;;;-0.70;99.90;;;;;;4999242;28;20540;-79
2024/01/07 08:35:54;;;;;;;4.15;2.30;;;-0.60;99.90;;;;;;5021483;28;20061;-79
2024/01/07 08:38:20;;;;;;;2.70;2.20;;;-0.50;99.90;;;;;;4997643;28;20042;-79
2024/01/07 08:40:46;;;;;;;3.25;2.05;;;-0.50;99.90;;;;;;4999936;28;20104;-78
2024/01/07 08:43:11;;;;;;;3.40;2.17;;;-0.40;99.90;;;;;;5031068;28;20056;-79
2024/01/07 08:45:37;;;;;;;2.90;2.28;;;-0.40;99.90;;;;;;4989227;28;20100;-78
2024/01/07 08:48:03;;;;;;;3.50;2.40;;;-0.30;99.90;;;;;;4988661;28;20041;-79
2024/01/07 08:50:29;;;;;;;4.35;2.40;;;-0.30;99.90;;;;;;5021543;28;20053;-78
2024/01/07 08:52:55;;;;;;;3.85;2.10;;;-0.20;99.90;;;;;;5001520;28;20413;-79
2024/01/07 08:55:21;;;;;;;3.63;2.50;;;-0.20;99.90;;;;;;5000599;28;20052;-78
2024/01/07 08:57:48;;;;;;;3.72;2.25;;;-0.20;99.90;;;;;;5030037;28;20123;-78
2024/01/07 09:00:18;;;;;;;5.15;2.60;;;-0.20;99.90;;;;;;4982015;28;20430;-79
2024/01/07 09:02:44;;;;;;;5.75;2.75;;;-0.10;99.90;;;;;;4984058;28;20046;-79
2024/01/07 09:05:09;;;;;;;5.53;2.50;;;-0.10;99.90;;;;;;4993102;28;20065;-78
2024/01/07 09:07:35;;;;;;;4.78;2.10;;;-0.10;99.90;;;;;;4984459;28;20047;-79
2024/01/07 09:10:01;;;;;;;3.88;2.50;;;0.00;99.90;;;;;;4996989;28;20385;-79
2024/01/07 09:12:27;;;;;;;3.08;2.22;;;0.00;99.90;;;;;;4997534;28;20136;-79
2024/01/07 09:14:53;;;;;;;4.80;2.20;;;0.00;99.90;;;;;;4991483;28;20084;-79
2024/01/07 09:17:19;;;;;;;3.65;2.15;;;0.00;99.90;;;;;;4995262;28;20054;-78
2024/01/07 09:19:45;;;;;;;4.63;2.33;;;0.00;99.90;;;;;;4981523;28;20045;-79
2024/01/07 09:22:14;;;;;;;3.15;2.35;;;0.00;99.90;;;;;;5016892;28;20045;-79
2024/01/07 09:24:40;;;;;;;4.35;2.30;;;0.10;99.90;;;;;;4995141;28;20048;-79
2024/01/07 09:27:08;;;;;;;4.00;2.70;;;0.10;99.90;;;;;;4996285;28;20045;-79
2024/01/07 09:29:34;;;;;;;3.28;2.00;;;0.20;99.90;;;;;;4984656;28;20069;-79
2024/01/07 09:32:00;;;;;;;5.18;2.42;;;0.20;99.90;;;;;;4987540;28;20118;-78
2024/01/07 09:34:25;;;;;;;5.72;2.40;;;0.30;99.90;;;;;;5013149;28;20065;-79
2024/01/07 09:36:51;;;;;;;2.88;2.20;;;0.30;99.90;;;;;;4981985;28;20452;-79
2024/01/07 09:39:17;;;;;;;4.13;2.03;;;0.40;99.90;;;;;;4983058;28;20038;-79
2024/01/07 09:41:42;;;;;;;2.83;2.00;;;0.40;99.90;;;;;;5015893;28;20042;-79
2024/01/07 09:44:09;;;;;;;3.75;1.90;;;0.50;99.90;;;;;;4999365;28;20137;-79
2024/01/07 09:46:37;;;;;;;6.85;2.50;;;0.60;99.90;;;;;;5025869;28;20327;-79
2024/01/07 09:49:03;;;;;;;2.75;2.03;;;0.60;99.90;;;;;;4995760;28;20117;-79
2024/01/07 09:51:37;;;;;;;2.80;2.20;;;0.60;99.90;;;;;;5020351;28;20037;-79
2024/01/07 09:54:06;;;;;;;4.90;2.15;;;0.60;99.90;;;;;;4994953;28;20046;-79
2024/01/07 09:56:42;;;;;;;2.42;2.10;;;0.70;99.90;;;;;;5005527;28;20137;-80
2024/01/07 09:59:08;;;;;;;3.90;2.03;;;0.70;99.90;;;;;;5009038;28;20105;-79
2024/01/07 10:01:35;;;;;;;2.83;2.00;;;0.60;99.90;;;;;;4983322;28;20033;-79
2024/01/07 10:04:01;;;;;;;2.38;1.70;;;0.70;99.90;;;;;;4980502;28;20508;-79
2024/01/07 10:06:27;;;;;;;4.70;2.20;;;0.70;99.90;;;;;;4994844;28;20079;-80
2024/01/07 10:08:53;;;;;;;6.57;1.92;;;0.80;99.90;;;;;;4997137;28;20056;-79
2024/01/07 10:11:18;;;;;;;6.78;2.10;;;0.80;99.90;;;;;;5024143;28;20056;-79
2024/01/07 10:13:47;;;;;;;3.38;2.00;;;0.80;99.90;;;;;;4991327;28;20287;-79
2024/01/07 10:16:14;;;;;;;3.17;2.00;;;0.90;99.90;;;;;;4980825;28;20046;-79
2024/01/07 10:18:40;;;;;;;5.25;2.25;;;0.90;99.90;;;;;;5022897;28;20129;-79
2024/01/07 10:21:07;;;;;;;3.53;2.10;;;1.00;99.90;;;;;;4983443;28;20113;-79
2024/01/07 10:23:33;;;;;;;4.90;2.47;;;1.00;99.90;;;;;;4984648;28;20030;-79
2024/01/07 10:25:59;;;;;;;3.20;2.10;;;1.00;99.90;;;;;;4995451;28;20564;-79
2024/01/07 10:28:24;;;;;;;4.13;2.00;;;1.10;99.90;;;;;;4988276;28;20061;-79
2024/01/07 10:30:52;;;;;;;3.92;2.40;;;1.10;99.90;;;;;;5012663;28;20041;-79
2024/01/07 10:33:22;;;;;;;4.10;2.10;;;1.20;99.90;;;;;;4980137;28;20078;-79
2024/01/07 10:36:09;;;;;;;5.00;3.47;;;1.30;99.90;;;;;;4998773;28;20129;-79
2024/01/07 10:38:35;;;;;;;3.95;2.45;;;1.20;99.90;;;;;;5014744;28;20042;-79
2024/01/07 10:41:01;;;;;;;5.50;2.50;;;1.40;99.90;;;;;;4982023;28;20382;-79
2024/01/07 10:43:31;;;;;;;2.83;2.30;;;1.40;99.90;;;;;;5029169;28;20070;-79
2024/01/07 10:46:03;;;;;;;5.30;3.03;;;1.40;99.90;;;;;;4997146;28;20124;-79
2024/01/07 10:48:32;;;;;;;4.18;2.13;;;1.40;99.90;;;;;;5028156;28;20323;-79
2024/01/07 10:51:00;;;;;;;4.00;2.85;;;1.30;99.90;;;;;;4983491;28;20045;-79
2024/01/07 10:53:32;;;;;;;3.35;2.53;;;1.40;99.90;;;;;;5014088;28;20184;-79
2024/01/07 10:56:04;;;;;;;4.50;2.72;;;1.40;99.90;;;;;;4984282;28;20033;-79
2024/01/07 10:58:36;;;;;;;4.00;2.22;;;1.40;99.90;;;;;;4981552;28;20069;-79
2024/01/07 11:01:03;;;;;;;3.42;2.40;;;1.40;99.90;;;;;;4991985;28;20045;-78
2024/01/07 11:04:03;;;;;;;3.33;2.22;;;1.50;99.90;;;;;;4991635;28;20056;-78
2024/01/07 11:06:46;;;;;;;4.18;2.33;;;1.60;99.90;;;;;;4981745;28;20411;-78
2024/01/07 11:09:20;;;;;;;3.95;2.17;;;1.80;99.90;;;;;;5022748;28;20050;-78
2024/01/07 11:11:46;;;;;;;4.07;2.60;;;1.80;99.90;;;;;;4998149;28;20354;-78
2024/01/07 11:14:44;;;;;;;3.85;2.28;;;1.80;99.90;;;;;;4990798;28;20412;-78
2024/01/07 11:17:11;;;;;;;3.67;2.25;;;1.70;99.90;;;;;;4978026;28;20077;-78
2024/01/07 11:19:38;;;;;;;3.63;2.20;;;1.60;99.90;;;;;;4982309;28;20116;-78
2024/01/07 11:22:32;;;;;;;4.20;2.65;;;1.60;99.90;;;;;;4983611;28;20057;-78
2024/01/07 11:25:02;;;;;;;3.80;2.30;;;1.60;99.90;;;;;;5028221;28;20054;-77
2024/01/07 11:27:33;;;;;;;4.03;2.63;;;1.70;99.90;;;;;;4989192;28;20053;-78
2024/01/07 11:30:04;;;;;;;4.05;2.45;;;1.70;99.90;;;;;;4983153;28;20521;-79
2024/01/07 11:32:30;;;;;;;4.55;2.55;;;1.60;99.90;;;;;;4975531;28;20481;-78
2024/01/07 11:34:59;;;;;;;5.60;3.25;;;1.60;99.90;;;;;;4993926;28;20038;-78
2024/01/07 11:37:25;;;;;;;3.95;2.85;;;1.50;99.90;;;;;;4990097;28;20116;-78
2024/01/07 11:39:59;;;;;;;5.85;3.00;;;1.50;99.90;;;;;;4981622;28;20468;-78
2024/01/07 11:42:25;;;;;;;6.07;3.10;;;1.50;99.90;;;;;;5015269;28;20405;-79
2024/01/07 11:44:55;;;;;;;7.20;3.05;;;1.50;99.90;;;;;;4997157;28;20117;-78
2024/01/07 11:47:22;;;;;;;5.53;3.15;;;1.40;99.90;;;;;;4996484;28;20115;-78
2024/01/07 11:49:51;;;;;;;4.68;2.97;;;1.40;99.90;;;;;;4985841;28;20429;-78
2024/01/07 11:52:18;;;;;;;4.32;3.22;;;1.40;99.90;;;;;;4992274;28;20120;-78
2024/01/07 11:54:46;;;;;;;4.63;3.25;;;1.40;99.90;;;;;;4983870;28;20042;-78
2024/01/07 11:57:13;;;;;;;4.53;3.40;;;1.40;99.90;;;;;;4988526;28;20125;-78
2024/01/07 11:59:39;;;;;;;7.38;4.07;;;1.40;99.90;;;;;;4991715;28;20081;-78
2024/01/07 12:02:05;;;;;;;5.22;3.50;;;1.40;99.90;;;;;;4992680;28;20041;-78
2024/01/07 12:04:32;;;;;;;10.55;3.85;;;1.50;99.90;;;;;;4979154;28;20064;-78
2024/01/07 12:06:58;;;;;;;5.22;3.63;;;1.40;99.90;;;;;;4987154;28;20529;-77
2024/01/07 12:09:24;;;;;;;6.57;3.95;;;1.50;99.90;;;;;;5006778;28;20485;-78
2024/01/07 12:11:51;;;;;;;5.90;3.95;;;1.30;99.90;;;;;;4987052;28;20081;-78
2024/01/07 12:14:19;;;;;;;6.22;3.97;;;1.20;99.90;;;;;;4991604;28;20046;-78
2024/01/07 12:16:45;;;;;;;6.45;3.85;;;1.30;99.90;;;;;;4993615;28;20081;-77
2024/01/07 12:19:11;;;;;;;7.28;4.15;;;1.20;99.90;;;;;;4979306;28;20042;-78
2024/01/07 12:21:38;;;;;;;6.35;4.00;;;1.20;99.90;;;;;;5011060;28;20144;-78
2024/01/07 12:24:04;;;;;;;7.63;3.85;;;1.30;99.90;;;;;;5013530;28;20099;-78
2024/01/07 12:26:32;;;;;;;5.03;3.45;;;1.30;99.90;;;;;;4982230;28;20048;-78
2024/01/07 12:29:03;;;;;;;9.43;3.88;;;1.40;99.90;;;;;;4995567;28;20450;-78
2024/01/07 12:31:33;;;;;;;7.22;4.50;;;1.40;99.90;;;;;;4981048;28;20038;-78
2024/01/07 12:33:59;;;;;;;7.50;3.80;;;1.30;99.90;;;;;;4991074;28;20501;-78
2024/01/07 12:36:26;;;;;;;7.00;3.85;;;1.40;99.90;;;;;;4981893;28;20054;-77
2024/01/07 12:38:55;;;;;;;4.90;3.70;;;1.30;99.90;;;;;;4992252;28;20050;-78
2024/01/07 12:41:24;;;;;;;7.25;3.88;;;1.30;99.90;;;;;;4996516;28;20297;-77
2024/01/07 12:43:50;;;;;;;6.50;3.70;;;1.50;99.90;;;;;;5026421;28;20519;-78
2024/01/07 12:46:16;;;;;;;7.70;4.10;;;1.40;99.90;;;;;;4992190;28;20037;-78